Time;durP1;ratioP1;P1;durP2;ratioP2;P2;SDS_P1;SDS_P2;PMS_P1;PMS_P2;Temp;Humidity;BMP_temperature;BMP_pressure;BME280_temperature;BME280_humidity;BME280_pressure;Samples;Min_cycle;Max_cycle;Signal;HPM_P1;HPM_P2
2022/11/18 00:01:31;;;;;;;2.28;0.60;;;;;;;7.82;100.00;97017.63;4994099;28;20023;-75
2022/11/18 00:03:56;;;;;;;5.15;0.40;;;;;;;7.83;100.00;97019.25;4991785;28;20487;-78
2022/11/18 00:06:25;;;;;;;1.20;0.43;;;;;;;7.88;100.00;97030.16;4983912;28;20078;-75
2022/11/18 00:08:52;;;;;;;1.20;0.70;;;;;;;7.83;100.00;97013.88;4974548;28;20505;-78
2022/11/18 00:14:19;;;;;;;1.23;0.40;;;;;;;7.97;100.00;97028.78;4995058;28;20028;-79
2022/11/18 00:16:52;;;;;;;0.85;0.28;;;;;;;7.90;100.00;97001.13;4990843;28;20030;-75
2022/11/18 00:19:24;;;;;;;1.05;0.50;;;;;;;7.96;100.00;97008.28;4992305;28;20403;-75
2022/11/18 00:21:50;;;;;;;0.75;0.45;;;;;;;7.86;100.00;97010.75;4990142;28;20492;-74
2022/11/18 00:24:16;;;;;;;1.67;0.82;;;;;;;7.77;100.00;96996.75;4984621;28;20117;-75
2022/11/18 00:26:41;;;;;;;1.75;0.75;;;;;;;7.85;100.00;97015.28;4992381;28;20058;-76
2022/11/18 00:29:09;;;;;;;2.90;1.00;;;;;;;7.86;100.00;97008.03;4991828;28;20026;-75
2022/11/18 00:31:35;;;;;;;3.15;0.80;;;;;;;7.81;100.00;97016.81;4993469;28;20033;-74
2022/11/18 00:34:00;;;;;;;1.40;0.63;;;;;;;7.62;100.00;96994.50;4993197;28;20022;-75
2022/11/18 00:36:26;;;;;;;1.10;0.45;;;;;;;7.53;100.00;96981.59;4992617;28;20117;-74
2022/11/18 00:38:51;;;;;;;1.90;0.50;;;;;;;7.78;100.00;97011.03;4992385;28;20037;-74
2022/11/18 00:41:16;;;;;;;0.68;0.43;;;;;;;7.81;100.00;97013.31;4993899;28;20116;-75
2022/11/18 00:43:41;;;;;;;1.05;0.70;;;;;;;7.84;100.00;97015.53;5006980;28;20176;-78
2022/11/18 00:46:09;;;;;;;3.13;0.80;;;;;;;7.86;100.00;97011.56;4986792;28;20022;-75
2022/11/18 00:48:35;;;;;;;1.80;0.60;;;;;;;7.83;100.00;96992.31;4991111;28;20026;-75
2022/11/18 00:51:16;;;;;;;1.30;0.60;;;;;;;7.69;100.00;96986.31;4985778;28;20033;-77
2022/11/18 00:53:42;;;;;;;0.80;0.47;;;;;;;7.73;100.00;96998.28;4992849;28;20034;-76
2022/11/18 00:56:08;;;;;;;1.05;0.50;;;;;;;7.75;100.00;97008.81;4992266;28;20034;-75
2022/11/18 00:58:33;;;;;;;1.20;0.65;;;;;;;7.75;100.00;97016.88;4985197;28;20017;-77
2022/11/18 01:00:59;;;;;;;3.42;0.60;;;;;;;7.69;100.00;97014.06;4993614;28;20026;-77
2022/11/18 01:03:24;;;;;;;3.30;0.70;;;;;;;7.52;100.00;96991.56;4993292;28;20026;-79
2022/11/18 01:05:50;;;;;;;2.08;0.90;;;;;;;7.61;100.00;97024.34;5000714;28;20034;-75
2022/11/18 01:08:18;;;;;;;2.38;0.90;;;;;;;7.44;100.00;97002.59;5011845;28;20113;-75
2022/11/18 01:10:44;;;;;;;3.50;0.80;;;;;;;7.50;100.00;97017.88;4994641;28;20031;-75
2022/11/18 01:13:20;;;;;;;1.92;0.90;;;;;;;7.55;100.00;97023.38;4989125;28;20428;-75
2022/11/18 01:15:46;;;;;;;2.03;1.02;;;;;;;7.53;100.00;97022.78;4991706;28;20108;-75
2022/11/18 01:18:12;;;;;;;2.85;1.00;;;;;;;7.39;100.00;97008.69;4979873;28;20046;-75
2022/11/18 01:20:37;;;;;;;1.50;0.70;;;;;;;7.41;100.00;97028.13;4979282;28;20023;-78
2022/11/18 01:23:03;;;;;;;3.50;1.15;;;;;;;7.29;100.00;97019.16;4991767;28;20161;-79
2022/11/18 01:25:29;;;;;;;3.75;0.88;;;;;;;7.38;100.00;97038.50;4992017;28;20019;-77
2022/11/18 01:27:55;;;;;;;1.63;1.00;;;;;;;7.19;100.00;97027.75;4979613;28;20422;-77
2022/11/18 01:30:21;;;;;;;7.70;1.38;;;;;;;7.24;100.00;97038.66;4980247;28;20033;-75
2022/11/18 01:32:46;;;;;;;2.70;1.15;;;;;;;7.21;100.00;97020.28;4992652;28;20037;-75
2022/11/18 01:35:12;;;;;;;2.20;1.50;;;;;;;7.38;100.00;97046.56;4991849;28;20117;-75
2022/11/18 01:37:37;;;;;;;1.25;0.70;;;;;;;7.23;100.00;97042.41;4988300;28;20033;-78
2022/11/18 01:40:04;;;;;;;6.65;1.30;;;;;;;7.18;100.00;97031.50;4987551;28;20026;-79
2022/11/18 01:42:30;;;;;;;3.47;1.10;;;;;;;7.32;100.00;97051.00;5000914;28;20018;-76
2022/11/18 01:45:20;;;;;;;3.50;1.35;;;;;;;7.32;100.00;97051.00;4988959;28;20101;-76
2022/11/18 01:47:59;;;;;;;5.00;1.20;;;;;;;7.25;100.00;97044.88;4998757;28;20115;-78
2022/11/18 01:50:25;;;;;;;;;;;;;;;7.33;100.00;97052.63;4992135;28;20773;-75
2022/11/18 01:52:54;;;;;;;0.90;0.70;;;;;;;7.21;100.00;97043.69;4992893;28;19995;-75
2022/11/18 01:55:27;;;;;;;2.78;0.82;;;;;;;7.21;100.00;97044.50;4987113;28;20038;-76
2022/11/18 01:58:00;;;;;;;3.05;0.70;;;;;;;7.31;100.00;97053.91;4996245;28;20066;-75
2022/11/18 02:00:26;;;;;;;0.90;0.70;;;;;;;7.08;100.00;97023.16;4985131;28;20022;-83
2022/11/18 02:02:51;;;;;;;2.70;0.98;;;;;;;7.33;100.00;97051.81;4992271;28;20038;-76
2022/11/18 02:05:17;;;;;;;5.70;1.55;;;;;;;7.16;100.00;97033.59;4991334;28;20053;-78
2022/11/18 02:07:43;;;;;;;4.15;0.70;;;;;;;7.24;100.00;97049.44;4986242;28;20039;-76
2022/11/18 02:10:18;;;;;;;3.90;0.98;;;;;;;7.27;100.00;97041.97;4983477;28;20022;-77
2022/11/18 02:12:44;;;;;;;2.80;1.15;;;;;;;7.28;100.00;97047.09;4990703;28;20036;-76
2022/11/18 02:15:09;;;;;;;4.53;0.90;;;;;;;7.30;100.00;97063.03;4987796;28;20030;-76
2022/11/18 02:17:37;;;;;;;2.47;1.00;;;;;;;7.34;100.00;97075.81;4991120;28;20388;-78
2022/11/18 02:20:09;;;;;;;7.03;0.90;;;;;;;7.32;100.00;97074.38;4990005;28;20030;-76
2022/11/18 02:23:01;;;;;;;1.67;0.82;;;;;;;7.34;100.00;97083.06;4988666;28;20053;-77
2022/11/18 02:25:54;;;;;;;3.92;0.98;;;;;;;7.31;100.00;97080.78;4988837;28;20041;-75
2022/11/18 02:28:20;;;;;;;2.03;0.80;;;;;;;7.30;100.00;97084.53;4995984;28;20054;-75
2022/11/18 02:30:56;;;;;;;1.70;0.93;;;;;;;7.12;100.00;97064.66;4993710;28;20072;-75
2022/11/18 02:33:27;;;;;;;2.35;0.70;;;;;;;7.20;100.00;97088.59;5010358;28;20058;-75
2022/11/18 02:36:04;;;;;;;1.58;0.70;;;;;;;7.23;100.00;97093.53;4995246;28;20026;-79
2022/11/18 02:38:36;;;;;;;1.30;0.90;;;;;;;7.21;100.00;97087.53;4989263;28;20499;-76
2022/11/18 02:41:07;;;;;;;3.30;0.98;;;;;;;7.19;100.00;97081.56;4984810;28;20031;-77
2022/11/18 02:43:39;;;;;;;6.40;0.88;;;;;;;7.23;100.00;97090.81;4984075;28;20073;-76
2022/11/18 02:46:08;;;;;;;3.33;0.93;;;;;;;7.30;100.00;97089.91;4989446;28;20027;-76
2022/11/18 02:48:43;;;;;;;;;;;;;;;7.31;100.00;97100.47;4994782;28;20116;-77
2022/11/18 02:51:10;;;;;;;2.15;0.88;;;;;;;7.17;100.00;97082.81;4979555;28;19917;-76
2022/11/18 02:53:39;;;;;;;3.65;1.17;;;;;;;7.08;100.00;97076.94;4988858;28;20026;-76
2022/11/18 02:56:06;;;;;;;3.00;1.30;;;;;;;7.17;100.00;97099.78;4995162;28;20108;-76
2022/11/18 02:58:31;;;;;;;2.10;1.10;;;;;;;7.08;100.00;97086.88;4983850;28;20065;-76
2022/11/18 03:00:59;;;;;;;3.13;1.40;;;;;;;7.26;100.00;97116.47;5001412;28;20701;-77
2022/11/18 03:03:28;;;;;;;2.25;1.23;;;;;;;7.24;100.00;97113.97;4990595;28;20481;-78
2022/11/18 03:06:15;;;;;;;3.30;1.38;;;;;;;7.20;100.00;97118.19;4993365;28;20113;-77
2022/11/18 03:09:08;;;;;;;6.88;1.45;;;;;;;7.24;100.00;97130.13;4993590;28;20180;-78
2022/11/18 03:11:48;;;;;;;5.15;1.50;;;;;;;7.30;100.00;97138.34;4993530;28;20022;-79
2022/11/18 03:14:28;;;;;;;3.78;1.17;;;;;;;7.33;100.00;97144.09;4993723;28;20117;-77
2022/11/18 03:17:02;;;;;;;3.78;1.30;;;;;;;7.36;100.00;97145.50;4990269;28;20084;-78
2022/11/18 03:20:03;;;;;;;8.15;1.80;;;;;;;7.36;100.00;97140.13;4989567;28;20411;-76
2022/11/18 03:22:59;;;;;;;5.47;1.67;;;;;;;6.93;100.00;97081.84;4979159;28;20408;-77
2022/11/18 03:25:36;;;;;;;3.08;1.17;;;;;;;7.24;100.00;97134.69;4991631;28;20137;-76
2022/11/18 03:28:10;;;;;;;5.35;1.30;;;;;;;7.39;100.00;97155.84;4994182;28;20053;-76
2022/11/18 03:30:40;;;;;;;1.67;0.77;;;;;;;7.22;100.00;97137.59;4993239;28;20080;-76
2022/11/18 03:33:11;;;;;;;4.68;0.98;;;;;;;7.13;100.00;97138.94;4992734;28;20396;-76
2022/11/18 03:35:40;;;;;;;1.27;0.60;;;;;;;7.17;100.00;97150.06;4988667;28;20034;-77
2022/11/18 03:38:14;;;;;;;1.65;0.73;;;;;;;7.04;100.00;97129.50;4993541;28;20022;-81
2022/11/18 03:40:45;;;;;;;0.85;0.40;;;;;;;7.14;100.00;97129.00;4995069;28;20034;-80
2022/11/18 03:43:23;;;;;;;0.80;0.38;;;;;;;7.01;100.00;97124.56;4994469;28;20373;-84
2022/11/18 03:45:52;;;;;;;1.17;0.65;;;;;;;7.13;100.00;97143.50;4987289;28;20034;-79
2022/11/18 03:48:35;;;;;;;0.32;0.28;;;;;;;7.04;100.00;97134.88;4989854;28;20270;-78
2022/11/18 03:51:06;;;;;;;2.70;0.38;;;;;;;7.07;100.00;97145.19;4991867;28;20026;-78
2022/11/18 03:53:36;;;;;;;0.57;0.30;;;;;;;7.09;100.00;97153.03;4990676;28;20030;-78
2022/11/18 03:56:09;;;;;;;0.60;0.25;;;;;;;6.97;100.00;97159.16;4981686;28;20034;-79
2022/11/18 03:58:44;;;;;;;4.68;0.43;;;;;;;7.02;100.00;97158.47;4983700;28;20022;-78
2022/11/18 04:01:16;;;;;;;2.38;0.30;;;;;;;6.99;100.00;97165.09;4987128;28;20045;-79
2022/11/18 04:03:42;;;;;;;0.52;0.30;;;;;;;7.13;100.00;97184.66;4994265;28;20197;-80
2022/11/18 04:06:41;;;;;;;1.27;0.55;;;;;;;7.13;100.00;97186.53;4994904;28;20030;-81
2022/11/18 04:09:20;;;;;;;1.40;0.28;;;;;;;7.05;100.00;97181.41;4971933;28;20070;-80
2022/11/18 04:12:02;;;;;;;0.75;0.25;;;;;;;6.93;100.00;97163.31;4995081;28;20049;-81
2022/11/18 04:14:29;;;;;;;2.78;0.50;;;;;;;6.92;100.00;97182.38;4991934;28;20688;-80
2022/11/18 04:16:54;;;;;;;3.80;0.38;;;;;;;6.93;100.00;97184.81;4990455;28;20062;-80
2022/11/18 04:19:20;;;;;;;1.83;0.40;;;;;;;6.90;100.00;97204.09;4993301;28;20066;-79
2022/11/18 04:21:47;;;;;;;0.40;0.30;;;;;;;6.68;100.00;97165.16;4994218;28;20034;-81
2022/11/18 04:24:13;;;;;;;2.50;0.40;;;;;;;6.88;100.00;97179.28;4987517;28;20114;-82
2022/11/18 04:26:38;;;;;;;0.70;0.28;;;;;;;6.87;100.00;97198.31;4993987;28;20076;-83
2022/11/18 04:29:03;;;;;;;1.80;0.30;;;;;;;6.59;100.00;97153.88;4995937;28;20026;-84
2022/11/18 04:31:29;;;;;;;0.63;0.17;;;;;;;6.80;100.00;97199.19;4992564;28;20662;-83
2022/11/18 04:33:54;;;;;;;0.17;0.10;;;;;;;6.44;100.00;97145.31;4994503;28;20030;-84
2022/11/18 04:36:19;;;;;;;0.30;0.20;;;;;;;6.66;100.00;97194.97;4997345;28;20050;-82
2022/11/18 04:38:45;;;;;;;3.80;0.30;;;;;;;6.46;100.00;97159.34;4996914;28;20080;-82
2022/11/18 04:41:10;;;;;;;1.20;0.30;;;;;;;6.55;100.00;97180.38;4999273;28;20485;-82
2022/11/18 04:43:36;;;;;;;2.63;0.30;;;;;;;6.67;100.00;97204.66;4995249;28;20026;-83
2022/11/18 04:46:02;;;;;;;2.40;0.43;;;;;;;6.57;100.00;97190.88;4998536;28;20037;-83
2022/11/18 04:48:27;;;;;;;2.30;0.20;;;;;;;6.59;100.00;97186.13;4994121;28;20429;-85
2022/11/18 04:50:52;;;;;;;0.90;0.10;;;;;;;6.70;100.00;97209.59;5009747;28;20080;-86
2022/11/18 04:53:17;;;;;;;0.15;0.10;;;;;;;6.49;100.00;97191.16;4980012;28;20046;-86
2022/11/18 04:55:43;;;;;;;1.00;0.10;;;;;;;6.59;100.00;97203.06;5008470;28;20141;-83
2022/11/18 04:58:08;;;;;;;0.73;0.17;;;;;;;6.57;100.00;97202.44;4987286;28;20031;-79
2022/11/18 05:00:34;;;;;;;1.85;0.30;;;;;;;6.69;100.00;97226.78;4998401;28;20473;-87
2022/11/18 05:02:59;;;;;;;0.30;0.13;;;;;;;6.66;100.00;97229.91;4985218;28;20480;-85
2022/11/18 05:05:24;;;;;;;2.65;0.40;;;;;;;6.40;100.00;97184.41;4985587;28;20161;-76
2022/11/18 05:07:50;;;;;;;0.43;0.10;;;;;;;6.60;100.00;97238.81;5004614;28;20480;-87
2022/11/18 05:10:15;;;;;;;0.40;0.28;;;;;;;6.43;100.00;97202.78;4993714;28;20587;-83
2022/11/18 05:12:51;;;;;;;0.40;0.15;;;;;;;6.54;100.00;97234.31;4997148;28;20058;-83
2022/11/18 05:15:18;;;;;;;0.65;0.20;;;;;;;6.42;100.00;97211.84;4995626;28;20037;-89
2022/11/18 05:17:44;;;;;;;5.13;0.32;;;;;;;6.51;100.00;97256.25;4978821;28;20038;-80
2022/11/18 05:20:10;;;;;;;1.00;0.20;;;;;;;6.20;100.00;97206.81;4991720;28;20018;-80
2022/11/18 05:22:35;;;;;;;1.90;1.20;;;;;;;6.38;100.00;97242.88;4996839;28;20061;-81
2022/11/18 05:25:01;;;;;;;3.83;1.20;;;;;;;6.51;100.00;97258.94;4989947;28;20030;-85
2022/11/18 05:27:26;;;;;;;1.48;1.00;;;;;;;6.41;100.00;97253.19;4989073;28;20037;-86
2022/11/18 05:29:52;;;;;;;1.05;0.70;;;;;;;6.43;100.00;97257.31;4993037;28;20030;-85
2022/11/18 05:32:17;;;;;;;2.15;1.38;;;;;;;6.45;100.00;97268.69;5011037;28;20098;-85
2022/11/18 05:34:43;;;;;;;1.83;0.90;;;;;;;6.15;100.00;97230.78;4990118;28;20031;-86
2022/11/18 05:37:08;;;;;;;4.10;0.90;;;;;;;6.42;100.00;97268.25;4984845;28;20034;-87
2022/11/18 05:39:33;;;;;;;7.53;1.48;;;;;;;6.35;100.00;97260.25;4974421;28;20022;-83
2022/11/18 05:44:44;;;;;;;0.55;0.40;;;;;;;6.10;100.00;97231.47;4998272;28;20061;-80
2022/11/18 05:47:09;;;;;;;1.10;0.45;;;;;;;6.15;100.00;97233.47;4983879;28;20030;-83
2022/11/18 05:49:35;;;;;;;0.50;0.40;;;;;;;5.95;100.00;97217.47;4992489;28;20022;-81
2022/11/18 05:52:00;;;;;;;3.88;0.50;;;;;;;6.19;100.00;97261.56;4991349;28;20027;-76
2022/11/18 05:54:26;;;;;;;0.57;0.40;;;;;;;6.25;100.00;97279.50;4987873;28;20030;-80
2022/11/18 05:56:52;;;;;;;6.40;1.23;;;;;;;5.99;100.00;97236.66;4992240;28;20070;-77
2022/11/18 05:59:17;;;;;;;3.17;1.05;;;;;;;6.21;100.00;97280.97;4985557;28;20531;-81
2022/11/18 06:01:51;;;;;;;3.25;1.10;;;;;;;6.26;100.00;97293.75;4990466;28;20065;-83
2022/11/18 06:04:25;;;;;;;0.95;0.60;;;;;;;5.98;100.00;97253.81;4991643;28;20026;-76
2022/11/18 06:06:58;;;;;;;3.20;0.90;;;;;;;6.10;100.00;97278.94;4985089;28;20046;-77
2022/11/18 06:09:28;;;;;;;1.83;0.77;;;;;;;6.12;100.00;97287.63;4985663;28;20022;-77
2022/11/18 06:11:57;;;;;;;1.33;0.63;;;;;;;6.17;100.00;97295.03;4990589;28;20030;-78
2022/11/18 06:14:34;;;;;;;4.55;0.90;;;;;;;6.17;100.00;97300.41;4987761;28;20034;-79
2022/11/18 06:17:04;;;;;;;1.50;0.77;;;;;;;6.17;100.00;97293.16;5001683;28;20030;-85
2022/11/18 06:19:38;;;;;;;;;;;;;;;6.29;100.00;97314.84;4992428;28;20028;-89
2022/11/18 06:22:04;;;;;;;1.42;0.73;;;;;;;6.16;100.00;97304.97;4986649;28;19913;-80
2022/11/18 06:24:30;;;;;;;1.55;0.60;;;;;;;6.18;100.00;97302.88;4985579;28;20054;-88
2022/11/18 06:26:57;;;;;;;0.88;0.52;;;;;;;6.17;100.00;97290.50;4979433;28;20058;-76
2022/11/18 06:29:22;;;;;;;1.98;0.75;;;;;;;6.15;100.00;97297.94;4985565;28;20022;-78
2022/11/18 06:31:48;;;;;;;0.60;0.50;;;;;;;6.20;100.00;97311.53;4980908;28;20437;-77
2022/11/18 06:34:13;;;;;;;0.75;0.60;;;;;;;6.18;100.00;97308.22;4984329;28;20110;-75
2022/11/18 06:36:38;;;;;;;2.85;1.13;;;;;;;6.34;100.00;97331.97;5002719;28;20033;-75
2022/11/18 06:39:05;;;;;;;3.42;1.00;;;;;;;6.20;100.00;97314.22;4986290;28;20120;-75
2022/11/18 06:41:31;;;;;;;2.00;0.95;;;;;;;6.37;100.00;97338.75;4981734;28;20027;-75
2022/11/18 06:43:56;;;;;;;6.22;1.10;;;;;;;6.43;100.00;97345.16;4982538;28;20401;-76
2022/11/18 06:49:06;;;;;;;4.13;2.03;;;;;;;6.45;100.00;97340.38;4987152;28;20117;-75
2022/11/18 06:51:31;;;;;;;4.30;1.88;;;;;;;6.48;100.00;97351.53;4995436;28;20042;-75
2022/11/18 06:53:56;;;;;;;3.03;0.80;;;;;;;6.50;100.00;97357.53;4985064;28;20026;-77
2022/11/18 06:56:25;;;;;;;4.65;1.50;;;;;;;6.59;100.00;97368.84;4992793;28;20404;-88
2022/11/18 06:58:57;;;;;;;2.83;0.98;;;;;;;6.56;100.00;97371.97;4996522;28;20078;-89
2022/11/18 07:01:25;;;;;;;2.22;0.90;;;;;;;6.44;100.00;97344.91;4991488;28;20022;-83
2022/11/18 07:03:51;;;;;;;2.15;0.82;;;;;;;6.58;100.00;97378.78;4993535;28;20373;-82
2022/11/18 07:06:20;;;;;;;1.25;0.60;;;;;;;6.48;100.00;97372.19;4996006;28;20030;-81
2022/11/18 07:08:45;;;;;;;4.10;1.15;;;;;;;6.36;100.00;97366.66;4991419;28;20030;-80
2022/11/18 07:11:13;;;;;;;2.13;0.85;;;;;;;6.42;100.00;97373.03;4990061;28;20094;-79
2022/11/18 07:13:39;;;;;;;2.55;0.80;;;;;;;6.49;100.00;97382.72;4993783;28;20054;-82
2022/11/18 07:16:07;;;;;;;2.42;0.55;;;;;;;6.48;100.00;97391.00;4987446;28;20031;-83
2022/11/18 07:18:34;;;;;;;2.15;0.70;;;;;;;6.44;100.00;97390.59;4995865;28;20023;-85
2022/11/18 07:21:01;;;;;;;5.47;0.60;;;;;;;6.23;100.00;97356.75;5011983;28;20072;-85
2022/11/18 07:23:27;;;;;;;6.20;0.90;;;;;;;6.64;100.00;97417.41;4996225;28;20081;-76
2022/11/18 07:25:56;;;;;;;2.08;0.90;;;;;;;6.66;100.00;97409.97;4987685;28;20495;-84
2022/11/18 07:28:21;;;;;;;1.13;0.80;;;;;;;6.40;100.00;97380.50;4989531;28;20022;-87
2022/11/18 07:30:46;;;;;;;2.25;0.63;;;;;;;6.18;100.00;97351.19;4994320;28;20061;-83
2022/11/18 07:33:11;;;;;;;1.67;0.70;;;;;;;6.51;100.00;97398.63;5000061;28;20125;-81
2022/11/18 07:35:37;;;;;;;5.30;2.83;;;;;;;6.53;100.00;97413.50;4996981;28;20042;-85
2022/11/18 07:38:02;;;;;;;4.85;1.85;;;;;;;6.59;100.00;97417.22;4996810;28;20026;-90
2022/11/18 07:40:31;;;;;;;1.92;1.20;;;;;;;6.58;100.00;97404.81;4995548;28;20399;-87
2022/11/18 07:42:58;;;;;;;;;;;;;;;6.74;100.00;97433.91;4996584;28;20409;-83
2022/11/18 07:45:23;;;;;;;0.90;0.65;;;;;;;6.62;100.00;97419.47;4999802;28;19917;-85
2022/11/18 07:47:50;;;;;;;1.15;0.68;;;;;;;6.65;100.00;97432.47;4990486;28;20451;-89
2022/11/18 07:50:30;;;;;;;1.60;1.08;;;;;;;6.58;100.00;97432.50;4992789;28;20492;-89
2022/11/18 07:52:56;;;;;;;3.72;0.63;;;;;;;6.52;100.00;97416.41;5010362;28;20129;-78
2022/11/18 07:55:27;;;;;;;0.95;0.70;;;;;;;6.64;100.00;97436.22;4998646;28;20057;-84
2022/11/18 07:57:55;;;;;;;2.10;0.90;;;;;;;6.69;100.00;97447.16;4997177;28;20022;-85
2022/11/18 08:00:20;;;;;;;1.48;0.70;;;;;;;6.58;100.00;97423.63;4999954;28;20030;-86
2022/11/18 08:02:49;;;;;;;2.35;0.77;;;;;;;6.66;100.00;97461.03;4995174;28;20489;-88
2022/11/18 08:05:15;;;;;;;1.90;0.98;;;;;;;6.62;100.00;97443.66;4990815;28;20032;-87
2022/11/18 08:07:40;;;;;;;1.38;0.95;;;;;;;6.51;100.00;97415.56;4990678;28;20031;-85
2022/11/18 08:10:06;;;;;;;1.73;0.95;;;;;;;6.55;100.00;97443.69;4990029;28;20027;-86
2022/11/18 08:12:31;;;;;;;1.27;0.85;;;;;;;6.64;100.00;97452.34;4995834;28;20042;-89
2022/11/18 08:14:56;;;;;;;1.30;0.52;;;;;;;6.55;100.00;97462.50;4995214;28;20548;-87
2022/11/18 08:17:22;;;;;;;1.08;0.75;;;;;;;6.59;100.00;97454.84;4993561;28;20030;-78
2022/11/18 08:19:47;;;;;;;1.88;0.70;;;;;;;6.56;100.00;97448.00;4994018;28;20030;-80
2022/11/18 08:22:12;;;;;;;1.83;0.60;;;;;;;6.73;100.00;97477.97;5008405;28;20026;-80
2022/11/18 08:24:38;;;;;;;2.45;1.15;;;;;;;6.82;100.00;97475.03;4988078;28;20547;-86
2022/11/18 08:27:03;;;;;;;1.73;1.00;;;;;;;6.82;100.00;97477.72;4997629;28;20038;-85
2022/11/18 08:29:28;;;;;;;2.15;0.80;;;;;;;6.89;100.00;97470.44;4998853;28;20531;-88
2022/11/18 08:31:54;;;;;;;0.88;0.70;;;;;;;6.90;100.00;97477.47;5005113;28;20034;-85
2022/11/18 08:34:19;;;;;;;4.45;0.88;;;;;;;6.61;100.00;97450.06;4996837;28;20026;-86
2022/11/18 08:36:44;;;;;;;2.30;1.05;;;;;;;6.85;100.00;97486.19;4995878;28;20034;-84
2022/11/18 08:39:10;;;;;;;5.30;1.02;;;;;;;6.99;100.00;97481.56;4999404;28;20053;-89
2022/11/18 08:41:45;;;;;;;3.33;0.80;;;;;;;6.02;100.00;97344.44;4996610;28;20374;-89
2022/11/18 08:44:13;;;;;;;1.95;0.70;;;;;;;6.08;100.00;97348.97;4979394;28;20193;-86
2022/11/18 08:46:39;;;;;;;1.08;0.77;;;;;;;6.65;100.00;97431.66;4993409;28;20030;-85
2022/11/18 08:49:05;;;;;;;0.70;0.50;;;;;;;6.88;100.00;97479.56;4987481;28;20018;-87
2022/11/18 08:51:30;;;;;;;1.20;0.70;;;;;;;6.90;100.00;97480.16;4990996;28;20030;-78
2022/11/18 08:53:55;;;;;;;1.33;0.73;;;;;;;7.04;100.00;97500.59;4996172;28;20369;-84
2022/11/18 08:56:22;;;;;;;1.25;0.50;;;;;;;7.10;100.00;97505.13;4990442;28;20044;-90
2022/11/18 08:58:55;;;;;;;0.90;0.60;;;;;;;7.06;100.00;97498.50;4989576;28;20397;-91
2022/11/18 09:01:21;;;;;;;2.38;0.98;;;;;;;7.20;100.00;97513.56;4990085;28;20026;-90
2022/11/18 09:03:46;;;;;;;1.67;0.60;;;;;;;6.84;100.00;97473.78;4990534;28;20045;-79
2022/11/18 09:06:18;;;;;;;0.95;0.70;;;;;;;7.04;100.00;97505.97;4993346;28;20027;-79
2022/11/18 09:08:43;;;;;;;3.05;1.30;;;;;;;7.09;100.00;97511.53;4987390;28;20037;-71
2022/11/18 09:11:18;;;;;;;1.20;1.08;;;;;;;7.09;100.00;97495.38;4991163;28;20913;-75
2022/11/18 09:13:44;;;;;;;3.50;1.50;;;;;;;7.10;100.00;97502.44;4989905;28;20077;-78
2022/11/18 09:16:09;;;;;;;6.47;2.10;;;;;;;7.15;100.00;97510.69;4983627;28;20022;-84
2022/11/18 09:18:35;;;;;;;2.53;1.40;;;;;;;7.07;100.00;97508.22;4992422;28;20469;-84
2022/11/18 09:21:08;;;;;;;2.78;1.10;;;;;;;7.05;100.00;97507.63;4993244;28;20118;-84
2022/11/18 09:23:36;;;;;;;5.63;1.35;;;;;;;7.15;100.00;97526.84;4995354;28;20492;-87
2022/11/18 09:26:07;;;;;;;1.30;1.00;;;;;;;7.19;100.00;97530.72;5012023;28;20054;-77
2022/11/18 09:28:33;;;;;;;2.03;1.02;;;;;;;7.14;100.00;97533.22;5001241;28;20026;-87
2022/11/18 09:31:06;;;;;;;1.75;0.90;;;;;;;7.23;100.00;97531.97;4994478;28;20026;-85
2022/11/18 09:33:32;;;;;;;3.53;0.80;;;;;;;7.15;100.00;97513.38;4989478;28;20044;-81
2022/11/18 09:35:58;;;;;;;2.05;0.70;;;;;;;7.14;100.00;97503.66;4990231;28;20030;-85
2022/11/18 09:38:23;;;;;;;1.02;0.63;;;;;;;7.21;100.00;97520.59;4994285;28;20049;-85
2022/11/18 09:41:01;;;;;;;1.65;0.73;;;;;;;7.12;100.00;97505.72;5009525;28;20026;-85
2022/11/18 09:43:53;;;;;;;0.93;0.60;;;;;;;7.20;100.00;97512.72;4991628;28;20029;-83
2022/11/18 09:46:35;;;;;;;1.98;0.52;;;;;;;7.29;100.00;97530.28;4998861;28;20022;-81
2022/11/18 09:49:11;;;;;;;2.13;0.70;;;;;;;7.21;100.00;97523.28;4990527;28;20512;-83
2022/11/18 09:51:46;;;;;;;2.90;0.70;;;;;;;7.35;100.00;97529.41;4999429;28;20050;-85
2022/11/18 09:54:21;;;;;;;3.13;0.68;;;;;;;7.45;100.00;97524.41;4992945;28;20033;-86
2022/11/18 09:56:50;;;;;;;1.25;0.60;;;;;;;7.47;100.00;97510.75;4992520;28;20063;-79
2022/11/18 09:59:18;;;;;;;1.13;0.55;;;;;;;7.49;100.00;97514.03;4987765;28;20034;-78
2022/11/18 10:01:44;;;;;;;2.70;0.50;;;;;;;7.44;100.00;97513.84;4990571;28;20034;-83
2022/11/18 10:04:18;;;;;;;4.25;0.57;;;;;;;7.64;100.00;97541.47;4984845;28;20034;-80
2022/11/18 10:06:45;;;;;;;2.42;0.50;;;;;;;7.54;100.00;97524.97;4988342;28;20145;-78
2022/11/18 10:09:17;;;;;;;3.58;0.88;;;;;;;7.71;100.00;97535.25;4988015;28;20113;-78
2022/11/18 10:11:46;;;;;;;1.55;0.60;;;;;;;7.67;100.00;97530.28;4983302;28;20034;-80
2022/11/18 10:14:23;;;;;;;0.95;0.55;;;;;;;7.69;100.00;97554.31;4999798;28;20022;-78
2022/11/18 10:16:57;;;;;;;1.90;1.17;;;;;;;7.59;100.00;97552.06;4986981;28;20034;-78
2022/11/18 10:19:41;;;;;;;2.25;1.20;;;;;;;7.50;100.00;97536.41;4982278;28;20055;-78
2022/11/18 10:22:40;;;;;;;4.05;1.85;;;;;;;7.66;100.00;97544.78;5005724;28;20031;-87
2022/11/18 10:25:12;;;;;;;7.07;2.70;;;;;;;7.75;100.00;97547.22;4994973;28;20030;-86
2022/11/18 10:27:40;;;;;;;6.93;2.38;;;;;;;7.97;100.00;97556.63;4991417;28;20030;-77
2022/11/18 10:30:12;;;;;;;4.55;1.50;;;;;;;8.16;100.00;97551.31;4989846;28;20026;-77
2022/11/18 10:32:59;;;;;;;8.38;2.40;;;;;;;8.43;100.00;97552.78;4990900;28;20022;-88
2022/11/18 10:35:31;;;;;;;4.70;1.48;;;;;;;8.24;100.00;97507.94;4996442;28;20074;-83
2022/11/18 10:38:13;;;;;;;4.70;1.10;;;;;;;8.73;100.00;97535.94;4991220;28;20066;-88
2022/11/18 10:41:01;;;;;;;3.70;1.20;;;;;;;8.99;100.00;97546.44;4978297;28;20044;-89
2022/11/18 10:43:53;;;;;;;5.70;1.83;;;;;;;9.20;100.00;97538.94;5008051;28;20023;-88
2022/11/18 10:46:30;;;;;;;5.18;1.55;;;;;;;9.27;100.00;97520.78;4993185;28;20034;-85
2022/11/18 10:49:08;;;;;;;7.78;2.13;;;;;;;9.17;100.00;97536.72;4997092;28;20053;-82
2022/11/18 10:51:35;;;;;;;3.67;1.20;;;;;;;9.10;100.00;97534.06;5015263;28;20030;-74
2022/11/18 10:54:08;;;;;;;6.88;1.73;;;;;;;8.83;100.00;97530.84;5009568;28;20472;-71
2022/11/18 10:57:03;;;;;;;2.05;1.00;;;;;;;8.71;100.00;97527.22;4993484;28;20026;-71
2022/11/18 10:59:54;;;;;;;2.38;0.88;;;;;;;8.67;100.00;97540.34;4993890;28;20034;-73
2022/11/18 11:02:37;;;;;;;1.80;0.60;;;;;;;8.45;100.00;97531.00;4983954;28;20129;-78
2022/11/18 11:05:22;;;;;;;2.92;0.80;;;;;;;8.32;100.00;97534.59;4994503;28;20030;-76
2022/11/18 11:08:02;;;;;;;1.10;0.73;;;;;;;8.32;100.00;97546.19;4990443;28;20498;-78
2022/11/18 11:10:28;;;;;;;5.70;0.98;;;;;;;8.47;100.00;97553.19;4994288;28;20177;-76
2022/11/18 11:13:08;;;;;;;3.85;0.80;;;;;;;8.44;100.00;97543.66;4993988;28;20172;-78
2022/11/18 11:15:44;;;;;;;2.08;0.90;;;;;;;8.44;100.00;97545.53;4979559;28;20030;-76
2022/11/18 11:18:42;;;;;;;1.88;0.93;;;;;;;8.35;100.00;97545.75;4993909;28;20037;-76
2022/11/18 11:21:18;;;;;;;1.97;1.20;;;;;;;8.59;100.00;97543.31;4992518;28;20057;-76
2022/11/18 11:23:45;;;;;;;5.30;2.13;;;;;;;9.04;100.00;97558.41;4999905;28;20034;-78
2022/11/18 11:26:37;;;;;;;2.58;1.00;;;;;;;9.25;100.00;97530.16;4992636;28;20026;-76
2022/11/18 11:29:47;;;;;;;2.55;1.30;;;;;;;9.29;100.00;97524.09;4992169;28;20113;-76
2022/11/18 11:32:33;;;;;;;2.70;1.10;;;;;;;9.23;100.00;97527.69;4994708;28;20507;-76
2022/11/18 11:35:25;;;;;;;3.53;1.00;;;;;;;9.06;100.00;97527.47;4993217;28;20038;-76
2022/11/18 11:38:03;;;;;;;1.20;1.00;;;;;;;9.23;100.00;97541.19;4993547;28;20071;-79
2022/11/18 11:40:44;;;;;;;7.25;1.45;;;;;;;9.25;100.00;97549.03;4995663;28;20072;-83
2022/11/18 11:43:44;;;;;;;3.28;1.30;;;;;;;9.20;100.00;97542.47;5000301;28;20069;-81
2022/11/18 11:47:45;;;;;;;2.85;1.10;;;;;;;9.36;100.00;97545.63;5001457;28;20065;-81
2022/11/18 11:50:11;;;;;;;3.45;1.48;;;;;;;9.43;100.00;97541.78;4985072;28;20039;-80
2022/11/18 11:53:03;;;;;;;1.52;1.20;;;;;;;9.69;100.00;97528.97;4988188;28;20030;-85
2022/11/18 11:55:41;;;;;;;3.47;1.50;;;;;;;10.45;100.00;97545.53;4999428;28;20037;-80
2022/11/18 11:58:25;;;;;;;4.03;1.20;;;;;;;11.00;100.00;97523.50;5000957;28;20038;-82
2022/11/18 12:01:05;;;;;;;1.70;0.88;;;;;;;11.13;100.00;97526.00;4999624;28;20049;-84